createdAt,value
2019-02-14T00:01:45.480Z,35.52
2019-02-14T00:04:14.347Z,36.60
2019-02-14T00:06:43.187Z,34.65
2019-02-14T00:09:13.944Z,38.58
2019-02-14T00:11:45.829Z,36.85
2019-02-14T00:14:14.627Z,38.05
2019-02-14T00:16:44.441Z,37.53
2019-02-14T00:19:13.393Z,36.48
2019-02-14T00:21:42.843Z,34.60
2019-02-14T00:24:11.614Z,36.25
2019-02-14T00:26:40.398Z,35.80
2019-02-14T00:29:09.180Z,35.55
2019-02-14T00:31:37.988Z,37.10
2019-02-14T00:34:06.907Z,35.28
2019-02-14T00:36:35.813Z,33.83
2019-02-14T00:39:05.431Z,34.38
2019-02-14T00:41:34.451Z,37.23
2019-02-14T00:44:03.261Z,37.33
2019-02-14T00:46:32.038Z,33.18
2019-02-14T00:49:00.919Z,34.35
2019-02-14T00:51:29.874Z,34.43
2019-02-14T00:53:58.671Z,35.03
2019-02-14T00:56:27.592Z,32.60
2019-02-14T00:58:56.445Z,36.53
2019-02-14T01:01:25.298Z,36.98
2019-02-14T01:03:54.244Z,30.90
2019-02-14T01:06:23.128Z,30.40
2019-02-14T01:08:51.962Z,36.70
2019-02-14T01:11:20.899Z,31.73
2019-02-14T01:13:49.845Z,31.17
2019-02-14T01:16:18.631Z,33.13
2019-02-14T01:18:47.481Z,36.20
2019-02-14T01:21:16.292Z,33.65
2019-02-14T01:23:45.064Z,27.55
2019-02-14T01:26:14.219Z,33.90
2019-02-14T01:28:43.004Z,33.45
2019-02-14T01:31:11.949Z,34.00
2019-02-14T01:33:40.712Z,35.15
2019-02-14T01:36:09.549Z,33.67
2019-02-14T01:38:38.499Z,31.93
2019-02-14T01:41:07.543Z,32.63
2019-02-14T01:43:36.450Z,30.77
2019-02-14T01:46:05.351Z,31.77
2019-02-14T01:48:34.343Z,29.82
2019-02-14T01:51:03.219Z,30.35
2019-02-14T01:53:32.073Z,32.73
2019-02-14T01:56:00.953Z,32.93
2019-02-14T01:58:29.817Z,34.13
2019-02-14T02:00:58.662Z,32.10
2019-02-14T02:03:27.451Z,31.57
2019-02-14T02:05:56.235Z,28.52
2019-02-14T02:08:25.227Z,29.95
2019-02-14T02:10:54.187Z,30.10
2019-02-14T02:13:22.991Z,28.45
2019-02-14T02:15:52.006Z,28.50
2019-02-14T02:18:21.092Z,26.02
2019-02-14T02:20:50.196Z,29.27
2019-02-14T02:23:19.085Z,27.98
2019-02-14T02:25:47.994Z,24.52
2019-02-14T02:28:16.866Z,28.35
2019-02-14T02:30:45.690Z,25.12
2019-02-14T02:33:14.438Z,27.77
2019-02-14T02:35:43.216Z,25.60
2019-02-14T02:38:12.161Z,25.37
2019-02-14T02:40:43.157Z,25.23
2019-02-14T02:43:23.052Z,24.95
2019-02-14T02:45:59.915Z,25.57
2019-02-14T02:48:36.937Z,22.93
2019-02-14T02:51:24.965Z,24.33
2019-02-14T02:53:53.931Z,25.75
2019-02-14T02:56:22.745Z,24.20
2019-02-14T02:58:51.695Z,24.90
2019-02-14T03:01:20.599Z,25.50
2019-02-14T03:03:49.406Z,25.23
2019-02-14T03:06:18.233Z,25.72
2019-02-14T03:08:47.070Z,23.90
2019-02-14T03:11:15.887Z,23.25
2019-02-14T03:13:44.668Z,23.73
2019-02-14T03:16:13.460Z,23.40
2019-02-14T03:18:42.248Z,23.60
2019-02-14T03:21:11.050Z,20.60
2019-02-14T03:23:39.881Z,22.87
2019-02-14T03:26:08.641Z,22.20
2019-02-14T03:28:37.430Z,22.67
2019-02-14T03:31:06.322Z,22.65
2019-02-14T03:33:35.180Z,22.62
2019-02-14T03:36:04.047Z,21.57
2019-02-14T03:38:32.896Z,21.02
2019-02-14T03:41:01.749Z,21.05
2019-02-14T03:43:30.602Z,22.80
2019-02-14T03:45:59.449Z,21.82
2019-02-14T03:48:28.240Z,21.02
2019-02-14T03:50:57.053Z,19.92
2019-02-14T03:53:26.110Z,21.05
2019-02-14T03:55:54.972Z,20.10
2019-02-14T03:58:23.815Z,21.95
2019-02-14T04:00:52.585Z,22.73
2019-02-14T04:03:21.381Z,20.20
2019-02-14T04:05:50.204Z,22.22
2019-02-14T04:08:19.041Z,21.57
2019-02-14T04:10:47.915Z,20.50
2019-02-14T04:13:16.738Z,21.20
2019-02-14T04:15:45.586Z,19.85
2019-02-14T04:18:14.358Z,20.70
2019-02-14T04:20:43.164Z,20.43
2019-02-14T04:23:11.944Z,19.75
2019-02-14T04:25:40.716Z,20.88
2019-02-14T04:28:11.732Z,21.30
2019-02-14T04:30:40.555Z,19.73
2019-02-14T04:33:09.371Z,19.50
2019-02-14T04:35:38.231Z,19.32
2019-02-14T04:38:07.128Z,20.03
2019-02-14T04:40:35.908Z,19.23
2019-02-14T04:43:04.777Z,19.15
2019-02-14T04:45:33.570Z,19.85
2019-02-14T04:48:02.402Z,19.50
2019-02-14T04:50:31.224Z,18.32
2019-02-14T04:53:00.025Z,21.70
2019-02-14T04:55:28.910Z,19.57
2019-02-14T04:57:57.814Z,20.35
2019-02-14T05:00:26.636Z,20.40
2019-02-14T05:02:55.402Z,20.97
2019-02-14T05:05:24.217Z,20.10
2019-02-14T05:07:53.087Z,19.77
2019-02-14T05:10:21.926Z,19.98
2019-02-14T05:12:50.786Z,19.87
2019-02-14T05:15:19.704Z,19.12
2019-02-14T05:17:48.463Z,21.25
2019-02-14T05:20:17.406Z,19.30
2019-02-14T05:22:46.399Z,19.40
2019-02-14T05:25:15.393Z,19.62
2019-02-14T05:27:44.308Z,20.75
2019-02-14T05:30:13.525Z,19.60
2019-02-14T05:32:42.390Z,17.90
2019-02-14T05:35:11.341Z,19.60
2019-02-14T05:37:40.449Z,18.60
2019-02-14T05:40:09.560Z,17.35
2019-02-14T05:42:38.494Z,17.55
2019-02-14T05:45:08.200Z,19.85
2019-02-14T05:47:37.001Z,20.00
2019-02-14T05:50:06.332Z,19.17
2019-02-14T05:52:35.121Z,18.85
2019-02-14T05:55:04.132Z,19.62
2019-02-14T05:57:32.989Z,18.30
2019-02-14T06:00:01.790Z,18.27
2019-02-14T06:02:32.205Z,19.48
2019-02-14T06:05:01.346Z,20.57
2019-02-14T06:07:30.232Z,19.55
2019-02-14T06:09:59.088Z,19.40
2019-02-14T06:12:27.939Z,18.80
2019-02-14T06:14:56.795Z,18.60
2019-02-14T06:17:27.346Z,19.30
2019-02-14T06:19:56.158Z,17.60
2019-02-14T06:22:24.958Z,20.15
2019-02-14T06:24:53.742Z,18.98
2019-02-14T06:27:22.715Z,18.80
2019-02-14T06:29:51.588Z,18.27
2019-02-14T06:32:20.523Z,18.47
2019-02-14T06:34:49.423Z,19.23
2019-02-14T06:37:18.234Z,19.30
2019-02-14T06:39:47.091Z,18.10
2019-02-14T06:42:16.021Z,19.90
2019-02-14T06:44:44.957Z,18.40
2019-02-14T06:47:13.808Z,20.43
2019-02-14T06:49:42.720Z,20.55
2019-02-14T06:52:11.667Z,20.97
2019-02-14T06:54:40.445Z,20.45
2019-02-14T06:57:09.398Z,20.20
2019-02-14T06:59:38.147Z,20.72
2019-02-14T07:02:06.902Z,21.02
2019-02-14T07:04:35.779Z,20.13
2019-02-14T07:07:04.704Z,19.80
2019-02-14T07:09:33.511Z,19.07
2019-02-14T07:12:02.362Z,21.57
2019-02-14T07:14:31.134Z,21.30
2019-02-14T07:16:59.926Z,20.60
2019-02-14T07:19:28.688Z,19.37
2019-02-14T07:21:57.504Z,21.17
2019-02-14T07:24:26.356Z,20.25
2019-02-14T07:26:55.252Z,20.83
2019-02-14T07:29:26.397Z,19.33
2019-02-14T07:31:57.843Z,21.90
2019-02-14T07:34:29.851Z,20.40
2019-02-14T07:36:58.650Z,20.17
2019-02-14T07:39:27.473Z,21.10
2019-02-14T07:41:56.378Z,21.57
2019-02-14T07:44:27.454Z,17.65
2019-02-14T07:46:56.384Z,19.15
2019-02-14T07:49:25.290Z,18.77
2019-02-14T07:51:54.170Z,20.05
2019-02-14T07:54:22.994Z,18.82
2019-02-14T07:56:52.567Z,19.85
2019-02-14T07:59:21.678Z,21.17
2019-02-14T08:01:50.503Z,19.60
2019-02-14T08:04:19.327Z,17.70
2019-02-14T08:06:48.217Z,21.07
2019-02-14T08:09:17.146Z,21.17
2019-02-14T08:11:46.007Z,20.88
2019-02-14T08:14:18.081Z,17.67
2019-02-14T08:16:46.890Z,19.48
2019-02-14T08:19:15.747Z,19.80
2019-02-14T08:21:47.835Z,18.95
2019-02-14T08:24:16.682Z,21.17
2019-02-14T08:26:45.879Z,20.88
2019-02-14T08:29:14.779Z,21.70
2019-02-14T08:31:43.782Z,20.70
2019-02-14T08:34:13.063Z,21.23
2019-02-14T08:36:42.370Z,20.70
2019-02-14T08:39:11.435Z,20.75
2019-02-14T08:41:40.358Z,19.30
2019-02-14T08:44:12.096Z,19.90
2019-02-14T08:46:41.802Z,22.13
2019-02-14T08:49:20.001Z,19.17
2019-02-14T08:51:48.916Z,19.25
2019-02-14T08:54:17.761Z,19.27
2019-02-14T08:56:46.586Z,18.75
2019-02-14T08:59:15.376Z,19.80
2019-02-14T09:01:44.308Z,19.62
2019-02-14T09:04:13.105Z,20.30
2019-02-14T09:06:41.955Z,20.13
2019-02-14T09:09:12.668Z,20.80
2019-02-14T09:11:41.681Z,18.80
2019-02-14T09:14:10.963Z,18.48
2019-02-14T09:16:39.810Z,18.40
2019-02-14T09:19:08.856Z,20.10
2019-02-14T09:21:37.792Z,17.42
2019-02-14T09:24:13.585Z,19.37
2019-02-14T09:26:42.461Z,18.65
2019-02-14T09:29:13.721Z,18.95
2019-02-14T09:31:41.857Z,18.77
2019-02-14T09:34:10.675Z,19.07
2019-02-14T09:36:39.553Z,18.73
2019-02-14T09:39:08.477Z,20.65
2019-02-14T09:41:37.428Z,19.30
2019-02-14T09:44:06.352Z,19.42
2019-02-14T09:46:35.445Z,19.02
2019-02-14T09:49:04.330Z,19.75
2019-02-14T09:51:33.330Z,18.02
2019-02-14T09:54:02.248Z,17.40
2019-02-14T09:56:31.276Z,18.37
2019-02-14T09:59:00.118Z,19.00
2019-02-14T10:01:28.987Z,18.42
2019-02-14T10:03:57.793Z,18.48
2019-02-14T10:06:26.692Z,17.77
2019-02-14T10:08:55.734Z,19.07
2019-02-14T10:11:24.744Z,19.07
2019-02-14T10:13:53.563Z,19.02
2019-02-14T10:16:22.347Z,17.07
2019-02-14T10:18:51.211Z,17.57
2019-02-14T10:21:20.027Z,19.00
2019-02-14T10:23:48.808Z,18.05
2019-02-14T10:26:17.780Z,18.82
2019-02-14T10:28:46.708Z,17.07
2019-02-14T10:31:15.728Z,16.67
2019-02-14T10:33:44.563Z,19.80
2019-02-14T10:36:13.469Z,18.12
2019-02-14T10:38:42.228Z,18.73
2019-02-14T10:41:11.055Z,17.95
2019-02-14T10:43:48.446Z,18.23
2019-02-14T10:46:10.543Z,17.50
2019-02-14T10:48:39.377Z,18.27
2019-02-14T10:51:08.311Z,18.85
2019-02-14T10:53:37.396Z,18.17
2019-02-14T10:56:07.713Z,17.65
2019-02-14T10:58:36.901Z,16.02
2019-02-14T11:01:06.429Z,15.80
2019-02-14T11:03:35.468Z,16.30
2019-02-14T11:06:04.476Z,14.33
2019-02-14T11:08:33.305Z,14.70
2019-02-14T11:11:02.123Z,12.68
2019-02-14T11:13:31.152Z,12.45
2019-02-14T11:15:59.973Z,12.47
2019-02-14T11:18:28.788Z,13.35
2019-02-14T11:20:57.655Z,12.65
2019-02-14T11:23:29.366Z,10.80
2019-02-14T11:25:58.426Z,10.32
2019-02-14T11:28:27.536Z,10.45
2019-02-14T11:30:56.375Z,11.97
2019-02-14T11:33:25.142Z,11.93
2019-02-14T11:35:54.153Z,11.43
2019-02-14T11:38:23.072Z,11.75
2019-02-14T11:40:51.870Z,11.30
2019-02-14T11:43:20.859Z,10.40
2019-02-14T11:45:49.813Z,11.00
2019-02-14T11:48:18.692Z,12.00
2019-02-14T11:50:47.567Z,11.68
2019-02-14T11:53:16.513Z,13.15
2019-02-14T11:55:45.458Z,13.83
2019-02-14T11:58:14.292Z,13.53
2019-02-14T12:00:43.140Z,12.70
2019-02-14T12:03:11.971Z,12.47
2019-02-14T12:05:40.771Z,13.22
2019-02-14T12:08:09.706Z,14.33
2019-02-14T12:10:38.546Z,14.70
2019-02-14T12:13:07.406Z,14.40
2019-02-14T12:15:36.355Z,14.13
2019-02-14T12:18:05.140Z,14.90
2019-02-14T12:20:34.145Z,14.53
2019-02-14T12:23:02.984Z,14.47
2019-02-14T12:25:31.864Z,15.10
2019-02-14T12:28:00.683Z,15.20
2019-02-14T12:30:29.691Z,16.45
2019-02-14T12:32:58.624Z,14.13
2019-02-14T12:35:27.491Z,14.70
2019-02-14T12:37:56.505Z,14.45
2019-02-14T12:40:25.363Z,14.85
2019-02-14T12:42:54.414Z,16.15
2019-02-14T12:45:25.768Z,14.85
2019-02-14T12:47:53.886Z,14.85
2019-02-14T12:50:22.945Z,14.67
2019-02-14T12:52:51.826Z,14.80
2019-02-14T12:55:20.649Z,15.13
2019-02-14T12:57:49.497Z,15.43
2019-02-14T13:00:19.907Z,15.13
2019-02-14T13:02:48.763Z,14.98
2019-02-14T13:05:17.639Z,14.78
2019-02-14T13:07:46.506Z,15.55
2019-02-14T13:10:15.924Z,14.43
2019-02-14T13:12:44.733Z,14.53
2019-02-14T13:15:15.751Z,14.73
2019-02-14T13:17:44.687Z,13.80
2019-02-14T13:20:13.667Z,13.38
2019-02-14T13:22:51.237Z,15.35
2019-02-14T13:25:20.058Z,13.93
2019-02-14T13:27:49.034Z,14.73
2019-02-14T13:30:19.971Z,14.85
2019-02-14T13:32:48.841Z,15.58
2019-02-14T13:35:17.706Z,14.10
2019-02-14T13:37:46.647Z,15.45
2019-02-14T13:40:15.647Z,15.23
2019-02-14T13:42:44.512Z,16.00
2019-02-14T13:45:14.726Z,14.90
2019-02-14T13:47:43.581Z,15.68
2019-02-14T13:50:12.775Z,15.95
2019-02-14T13:52:41.697Z,15.90
2019-02-14T13:55:10.995Z,15.10
2019-02-14T13:57:39.875Z,14.93
2019-02-14T14:00:15.800Z,15.23
2019-02-14T14:02:44.645Z,14.90
2019-02-14T14:05:13.658Z,14.55
2019-02-14T14:07:42.553Z,14.40
2019-02-14T14:10:11.672Z,15.13
2019-02-14T14:12:42.251Z,15.50
2019-02-14T14:15:11.232Z,14.98
2019-02-14T14:17:40.165Z,16.05
2019-02-14T14:20:09.221Z,15.50
2019-02-14T14:22:38.140Z,14.95
2019-02-14T14:25:07.165Z,14.35
2019-02-14T14:27:36.015Z,15.20
2019-02-14T14:30:07.171Z,15.48
2019-02-14T14:32:35.951Z,15.50
2019-02-14T14:35:05.444Z,14.47
2019-02-14T14:37:34.514Z,14.00
2019-02-14T14:40:03.576Z,14.45
2019-02-14T14:43:03.792Z,12.23
2019-02-14T14:45:51.870Z,15.65
2019-02-14T14:48:20.894Z,14.65
2019-02-14T14:50:50.431Z,14.63
2019-02-14T14:53:19.437Z,15.23
2019-02-14T14:55:48.298Z,14.30
2019-02-14T14:58:17.303Z,15.58
2019-02-14T15:00:46.369Z,15.32
2019-02-14T15:03:15.404Z,15.50
2019-02-14T15:05:44.202Z,15.28
2019-02-14T15:08:13.037Z,13.80
2019-02-14T15:10:41.904Z,15.35
2019-02-14T15:13:10.725Z,15.18
2019-02-14T15:15:39.672Z,14.20
2019-02-14T15:18:08.692Z,14.60
2019-02-14T15:20:37.509Z,15.90
2019-02-14T15:23:06.368Z,14.55
2019-02-14T15:25:35.337Z,15.08
2019-02-14T15:28:04.238Z,15.63
2019-02-14T15:30:33.017Z,15.80
2019-02-14T15:33:01.999Z,15.10
2019-02-14T15:35:31.042Z,15.57
2019-02-14T15:37:59.918Z,15.00
2019-02-14T15:40:28.773Z,16.55
2019-02-14T15:42:57.703Z,15.30
2019-02-14T15:45:26.569Z,16.57
2019-02-14T15:47:55.459Z,15.85
2019-02-14T15:50:24.373Z,15.75
2019-02-14T15:52:54.682Z,14.75
2019-02-14T15:55:24.285Z,14.58
2019-02-14T15:57:53.338Z,15.00
2019-02-14T16:00:22.264Z,15.10
2019-02-14T16:02:52.532Z,15.03
2019-02-14T16:05:21.624Z,15.78
2019-02-14T16:07:50.618Z,14.83
2019-02-14T16:10:19.569Z,16.75
2019-02-14T16:12:48.568Z,15.40
2019-02-14T16:15:17.447Z,14.50
2019-02-14T16:17:46.266Z,16.25
2019-02-14T16:20:17.121Z,14.80
2019-02-14T16:22:45.603Z,16.70
2019-02-14T16:25:14.595Z,15.60
2019-02-14T16:27:43.364Z,16.87
2019-02-14T16:30:12.409Z,16.27
2019-02-14T16:32:41.295Z,16.37
2019-02-14T16:35:10.340Z,16.40
2019-02-14T16:37:39.187Z,17.02
2019-02-14T16:40:08.709Z,16.27
2019-02-14T16:42:38.010Z,16.70
2019-02-14T16:45:07.208Z,16.82
2019-02-14T16:47:36.019Z,17.23
2019-02-14T16:50:05.757Z,16.75
2019-02-14T16:52:34.854Z,16.82
2019-02-14T16:55:03.968Z,16.48
2019-02-14T16:57:32.783Z,17.48
2019-02-14T17:00:01.781Z,16.85
2019-02-14T17:02:30.593Z,18.20
2019-02-14T17:04:59.557Z,17.10
2019-02-14T17:07:28.328Z,17.37
2019-02-14T17:09:57.218Z,18.50
2019-02-14T17:12:26.046Z,18.27
2019-02-14T17:14:56.736Z,18.90
2019-02-14T17:17:27.940Z,17.30
2019-02-14T17:19:56.350Z,19.67
2019-02-14T17:22:25.359Z,19.20
2019-02-14T17:24:54.177Z,18.87
2019-02-14T17:27:23.155Z,19.05
2019-02-14T17:29:51.943Z,20.08
2019-02-14T17:32:21.326Z,20.55
2019-02-14T17:34:52.939Z,19.50
2019-02-14T17:37:21.885Z,20.30
2019-02-14T17:39:50.908Z,19.77
2019-02-14T17:42:19.844Z,20.72
2019-02-14T17:44:49.027Z,23.00
2019-02-14T17:47:17.871Z,21.42
2019-02-14T17:49:46.668Z,22.45
2019-02-14T17:52:15.449Z,22.93
2019-02-14T17:54:44.348Z,24.23
2019-02-14T17:57:13.282Z,21.70
2019-02-14T17:59:42.324Z,21.57
2019-02-14T18:02:11.228Z,21.85
2019-02-14T18:04:40.148Z,22.55
2019-02-14T18:07:09.249Z,22.42
2019-02-14T18:09:38.348Z,23.12
2019-02-14T18:12:07.333Z,23.10
2019-02-14T18:14:36.385Z,24.35
2019-02-14T18:17:05.307Z,21.97
2019-02-14T18:19:34.224Z,24.82
2019-02-14T18:22:03.116Z,23.18
2019-02-14T18:24:32.045Z,22.87
2019-02-14T18:27:00.861Z,22.60
2019-02-14T18:29:29.733Z,23.22
2019-02-14T18:31:58.553Z,24.27
2019-02-14T18:34:27.407Z,26.70
2019-02-14T18:36:56.635Z,27.15
2019-02-14T18:39:25.423Z,26.97
2019-02-14T18:41:54.384Z,26.37
2019-02-14T18:44:23.187Z,27.20
2019-02-14T18:46:52.973Z,28.27
2019-02-14T18:49:22.118Z,30.08
2019-02-14T18:51:50.898Z,34.50
2019-02-14T18:54:19.891Z,34.00
2019-02-14T18:56:48.775Z,31.62
2019-02-14T18:59:17.790Z,35.10
2019-02-14T19:01:46.645Z,34.03
2019-02-14T19:04:15.430Z,34.05
2019-02-14T19:06:44.298Z,33.60
2019-02-14T19:09:13.151Z,36.30
2019-02-14T19:11:42.228Z,36.08
2019-02-14T19:14:11.229Z,38.93
2019-02-14T19:16:40.121Z,35.80
2019-02-14T19:19:08.924Z,34.00
2019-02-14T19:21:37.809Z,34.25
2019-02-14T19:24:06.724Z,32.95
2019-02-14T19:26:35.671Z,32.23
2019-02-14T19:29:04.587Z,29.02
2019-02-14T19:31:33.435Z,63.73
2019-02-14T19:34:02.288Z,91.17
2019-02-14T19:36:31.258Z,28.27
2019-02-14T19:39:00.089Z,26.55
2019-02-14T19:41:28.937Z,24.15
2019-02-14T19:43:57.775Z,24.90
2019-02-14T19:46:26.792Z,24.95
2019-02-14T19:48:55.774Z,22.17
2019-02-14T19:51:24.854Z,22.42
2019-02-14T19:53:53.970Z,21.97
2019-02-14T19:56:22.955Z,20.92
2019-02-14T19:58:51.906Z,22.13
2019-02-14T20:01:20.970Z,22.00
2019-02-14T20:03:49.920Z,20.48
2019-02-14T20:06:18.796Z,23.77
2019-02-14T20:08:48.766Z,22.73
2019-02-14T20:11:17.621Z,20.43
2019-02-14T20:13:49.554Z,22.02
2019-02-14T20:16:17.213Z,20.23
2019-02-14T20:18:46.346Z,18.35
2019-02-14T20:21:16.787Z,19.85
2019-02-14T20:23:45.677Z,18.53
2019-02-14T20:26:14.524Z,17.80
2019-02-14T20:28:43.350Z,18.87
2019-02-14T20:31:12.164Z,17.98
2019-02-14T20:33:41.453Z,18.15
2019-02-14T20:36:13.349Z,18.07
2019-02-14T20:38:42.282Z,20.15
2019-02-14T20:41:11.146Z,19.42
2019-02-14T20:43:40.076Z,14.87
2019-02-14T20:46:08.973Z,14.80
2019-02-14T20:48:38.058Z,14.30
2019-02-14T20:51:07.253Z,14.38
2019-02-14T20:53:36.372Z,16.65
2019-02-14T20:56:05.580Z,14.13
2019-02-14T20:58:34.480Z,14.70
2019-02-14T21:01:05.138Z,14.03
2019-02-14T21:03:34.082Z,35.97
2019-02-14T21:06:03.128Z,20.95
2019-02-14T21:08:32.105Z,13.00
2019-02-14T21:11:01.019Z,13.60
2019-02-14T21:13:30.050Z,11.95
2019-02-14T21:15:59.066Z,12.00
2019-02-14T21:18:28.063Z,12.60
2019-02-14T21:20:56.962Z,12.10
2019-02-14T21:26:08.261Z,11.30
2019-02-14T21:28:37.249Z,11.65
2019-02-14T21:31:06.226Z,13.00
2019-02-14T21:33:35.162Z,15.35
2019-02-14T21:36:04.257Z,13.10
2019-02-14T21:38:33.287Z,12.30
2019-02-14T21:41:02.345Z,12.20
2019-02-14T21:43:31.526Z,13.43
2019-02-14T21:46:00.564Z,12.88
2019-02-14T21:48:29.477Z,13.83
2019-02-14T21:50:58.530Z,12.53
2019-02-14T21:53:27.586Z,13.05
2019-02-14T21:55:56.627Z,13.80
2019-02-14T21:58:25.836Z,15.08
2019-02-14T22:00:54.830Z,13.00
2019-02-14T22:03:23.915Z,13.55
2019-02-14T22:05:53.150Z,13.65
2019-02-14T22:08:23.153Z,13.45
2019-02-14T22:10:52.643Z,13.68
2019-02-14T22:13:21.692Z,13.38
2019-02-14T22:15:50.749Z,13.60
2019-02-14T22:18:19.780Z,13.65
2019-02-14T22:20:48.589Z,12.45
2019-02-14T22:23:17.423Z,11.60
2019-02-14T22:25:46.568Z,12.90
2019-02-14T22:28:15.639Z,13.25
2019-02-14T22:30:44.749Z,13.30
2019-02-14T22:33:13.879Z,12.00
2019-02-14T22:35:42.803Z,11.80
2019-02-14T22:38:11.746Z,11.47
2019-02-14T22:40:40.827Z,11.50
2019-02-14T22:43:09.753Z,11.78
2019-02-14T22:45:38.671Z,11.90
2019-02-14T22:48:07.649Z,11.78
2019-02-14T22:50:36.844Z,11.50
2019-02-14T22:53:05.866Z,11.85
2019-02-14T22:55:34.845Z,11.35
2019-02-14T22:58:03.757Z,11.55
2019-02-14T23:00:37.592Z,10.60
2019-02-14T23:03:07.393Z,10.32
2019-02-14T23:05:36.853Z,10.40
2019-02-14T23:08:06.113Z,9.50
2019-02-14T23:10:35.424Z,10.10
2019-02-14T23:13:04.519Z,10.82
2019-02-14T23:15:33.630Z,11.63
2019-02-14T23:18:02.865Z,12.98
2019-02-14T23:20:31.932Z,13.20
2019-02-14T23:23:01.089Z,13.05
2019-02-14T23:25:30.055Z,12.50
2019-02-14T23:27:59.132Z,13.00
2019-02-14T23:30:28.291Z,15.65
2019-02-14T23:32:57.264Z,15.10
2019-02-14T23:35:26.626Z,16.65
2019-02-14T23:37:55.713Z,16.25
2019-02-14T23:40:24.500Z,16.50
2019-02-14T23:42:53.579Z,19.50
2019-02-14T23:45:22.727Z,20.80
2019-02-14T23:47:51.764Z,16.65
2019-02-14T23:50:20.744Z,16.90
2019-02-14T23:52:49.662Z,17.55
2019-02-14T23:55:18.581Z,19.25
2019-02-14T23:57:47.506Z,19.52
